sensor_id;sensor_type;location;lat;lon;timestamp;pressure;altitude;pressure_sealevel;temperature;humidity
35045;BME280;21231;48.394;34.964;2023-02-28T00:00:55;100774.25;;;0.83;100.00
35045;BME280;21231;48.394;34.964;2023-02-28T00:03:41;100779.16;;;0.81;100.00
35045;BME280;21231;48.394;34.964;2023-02-28T00:06:28;100793.13;;;0.78;100.00
35045;BME280;21231;48.394;34.964;2023-02-28T00:09:14;100785.81;;;0.72;100.00
35045;BME280;21231;48.394;34.964;2023-02-28T00:12:00;100793.84;;;0.68;100.00
35045;BME280;21231;48.394;34.964;2023-02-28T00:14:55;100797.81;;;0.66;100.00
35045;BME280;21231;48.394;34.964;2023-02-28T00:17:42;100786.78;;;0.65;100.00
35045;BME280;21231;48.394;34.964;2023-02-28T00:20:29;100786.31;;;0.60;100.00
35045;BME280;21231;48.394;34.964;2023-02-28T00:23:15;100772.41;;;0.57;100.00
35045;BME280;21231;48.394;34.964;2023-02-28T00:26:01;100775.81;;;0.57;100.00
35045;BME280;21231;48.394;34.964;2023-02-28T00:28:47;100782.38;;;0.55;100.00
35045;BME280;21231;48.394;34.964;2023-02-28T00:31:34;100784.09;;;0.47;100.00
35045;BME280;21231;48.394;34.964;2023-02-28T00:34:20;100783.50;;;0.50;100.00
35045;BME280;21231;48.394;34.964;2023-02-28T00:37:07;100789.16;;;0.47;100.00
35045;BME280;21231;48.394;34.964;2023-02-28T00:39:53;100790.66;;;0.45;100.00
35045;BME280;21231;48.394;34.964;2023-02-28T00:42:40;100790.50;;;0.44;100.00
35045;BME280;21231;48.394;34.964;2023-02-28T00:45:27;100791.97;;;0.42;100.00
35045;BME280;21231;48.394;34.964;2023-02-28T00:48:12;100788.94;;;0.37;100.00
35045;BME280;21231;48.394;34.964;2023-02-28T00:51:00;100786.72;;;0.40;100.00
35045;BME280;21231;48.394;34.964;2023-02-28T00:53:46;100790.25;;;0.33;100.00
35045;BME280;21231;48.394;34.964;2023-02-28T00:56:32;100793.50;;;0.32;100.00
35045;BME280;21231;48.394;34.964;2023-02-28T00:59:20;100796.78;;;0.31;100.00
35045;BME280;21231;48.394;34.964;2023-02-28T01:02:07;100800.63;;;0.28;100.00
35045;BME280;21231;48.394;34.964;2023-02-28T01:04:54;100813.72;;;0.23;100.00
35045;BME280;21231;48.394;34.964;2023-02-28T01:07:42;100818.78;;;0.23;100.00
35045;BME280;21231;48.394;34.964;2023-02-28T01:10:28;100825.81;;;0.26;100.00
35045;BME280;21231;48.394;34.964;2023-02-28T01:13:17;100827.72;;;0.20;100.00
35045;BME280;21231;48.394;34.964;2023-02-28T01:16:04;100836.59;;;0.16;100.00
35045;BME280;21231;48.394;34.964;2023-02-28T01:18:50;100837.16;;;0.14;100.00
35045;BME280;21231;48.394;34.964;2023-02-28T01:21:36;100839.19;;;0.09;100.00
35045;BME280;21231;48.394;34.964;2023-02-28T01:24:23;100845.19;;;0.09;100.00
35045;BME280;21231;48.394;34.964;2023-02-28T01:27:09;100843.97;;;0.06;100.00
35045;BME280;21231;48.394;34.964;2023-02-28T01:29:55;100842.69;;;0.02;100.00
35045;BME280;21231;48.394;34.964;2023-02-28T01:32:41;100837.31;;;-0.01;100.00
35045;BME280;21231;48.394;34.964;2023-02-28T01:35:27;100828.63;;;-0.03;100.00
35045;BME280;21231;48.394;34.964;2023-02-28T01:38:13;100829.22;;;-0.06;100.00
35045;BME280;21231;48.394;34.964;2023-02-28T01:41:08;100822.34;;;-0.07;100.00
35045;BME280;21231;48.394;34.964;2023-02-28T01:44:03;100817.09;;;-0.08;100.00
35045;BME280;21231;48.394;34.964;2023-02-28T01:46:50;100811.00;;;-0.10;100.00
35045;BME280;21231;48.394;34.964;2023-02-28T01:49:36;100812.44;;;-0.12;100.00
35045;BME280;21231;48.394;34.964;2023-02-28T01:52:23;100813.19;;;-0.13;100.00
35045;BME280;21231;48.394;34.964;2023-02-28T01:55:12;100816.44;;;-0.14;100.00
35045;BME280;21231;48.394;34.964;2023-02-28T01:58:01;100837.59;;;-0.14;100.00
35045;BME280;21231;48.394;34.964;2023-02-28T02:00:48;100844.47;;;-0.13;100.00
35045;BME280;21231;48.394;34.964;2023-02-28T02:03:35;100848.81;;;-0.12;100.00
35045;BME280;21231;48.394;34.964;2023-02-28T02:06:23;100858.78;;;-0.13;100.00
35045;BME280;21231;48.394;34.964;2023-02-28T02:09:12;100866.38;;;-0.13;100.00
35045;BME280;21231;48.394;34.964;2023-02-28T02:11:59;100863.16;;;-0.20;100.00
35045;BME280;21231;48.394;34.964;2023-02-28T02:15:06;100869.72;;;-0.22;100.00
35045;BME280;21231;48.394;34.964;2023-02-28T02:17:58;100878.22;;;-0.21;100.00
35045;BME280;21231;48.394;34.964;2023-02-28T02:23:57;100901.16;;;-0.20;100.00
35045;BME280;21231;48.394;34.964;2023-02-28T02:33:06;100918.75;;;-0.21;100.00
35045;BME280;21231;48.394;34.964;2023-02-28T02:36:01;100920.03;;;-0.25;100.00
35045;BME280;21231;48.394;34.964;2023-02-28T02:39:04;100909.25;;;-0.31;100.00
35045;BME280;21231;48.394;34.964;2023-02-28T02:41:53;100906.75;;;-0.38;100.00
35045;BME280;21231;48.394;34.964;2023-02-28T02:44:45;100910.75;;;-0.40;100.00
35045;BME280;21231;48.394;34.964;2023-02-28T02:47:35;100917.25;;;-0.43;100.00
35045;BME280;21231;48.394;34.964;2023-02-28T02:50:27;100915.47;;;-0.44;100.00
35045;BME280;21231;48.394;34.964;2023-02-28T02:53:19;100928.88;;;-0.45;100.00
35045;BME280;21231;48.394;34.964;2023-02-28T02:56:08;100938.63;;;-0.48;100.00
35045;BME280;21231;48.394;34.964;2023-02-28T02:58:59;100934.13;;;-0.50;100.00
35045;BME280;21231;48.394;34.964;2023-02-28T03:01:53;100954.97;;;-0.53;100.00
35045;BME280;21231;48.394;34.964;2023-02-28T03:04:50;100956.56;;;-0.53;100.00
35045;BME280;21231;48.394;34.964;2023-02-28T03:07:39;100961.47;;;-0.55;100.00
35045;BME280;21231;48.394;34.964;2023-02-28T03:10:46;100962.03;;;-0.58;100.00
35045;BME280;21231;48.394;34.964;2023-02-28T03:19:54;100979.94;;;-0.63;100.00
35045;BME280;21231;48.394;34.964;2023-02-28T03:26:22;100990.44;;;-0.67;100.00
35045;BME280;21231;48.394;34.964;2023-02-28T03:29:28;100986.13;;;-0.69;100.00
35045;BME280;21231;48.394;34.964;2023-02-28T03:32:28;100992.97;;;-0.67;100.00
35045;BME280;21231;48.394;34.964;2023-02-28T03:35:43;100975.81;;;-0.70;100.00
35045;BME280;21231;48.394;34.964;2023-02-28T03:38:37;100983.22;;;-0.72;100.00
35045;BME280;21231;48.394;34.964;2023-02-28T03:41:46;100982.34;;;-0.72;100.00
35045;BME280;21231;48.394;34.964;2023-02-28T03:44:40;100990.13;;;-0.71;100.00
35045;BME280;21231;48.394;34.964;2023-02-28T03:50:41;100985.06;;;-0.71;100.00
35045;BME280;21231;48.394;34.964;2023-02-28T04:00:43;101010.38;;;-0.71;100.00
35045;BME280;21231;48.394;34.964;2023-02-28T04:03:30;101010.19;;;-0.72;100.00
35045;BME280;21231;48.394;34.964;2023-02-28T04:06:20;101013.63;;;-0.72;100.00
35045;BME280;21231;48.394;34.964;2023-02-28T04:09:08;101012.19;;;-0.70;100.00
35045;BME280;21231;48.394;34.964;2023-02-28T04:11:54;101019.59;;;-0.71;100.00
35045;BME280;21231;48.394;34.964;2023-02-28T04:14:41;101027.38;;;-0.70;100.00
35045;BME280;21231;48.394;34.964;2023-02-28T04:17:27;101028.81;;;-0.72;100.00
35045;BME280;21231;48.394;34.964;2023-02-28T04:20:13;101033.16;;;-0.71;100.00
35045;BME280;21231;48.394;34.964;2023-02-28T04:22:59;101040.56;;;-0.72;100.00
35045;BME280;21231;48.394;34.964;2023-02-28T04:25:45;101044.72;;;-0.73;100.00
35045;BME280;21231;48.394;34.964;2023-02-28T04:28:31;101049.06;;;-0.72;100.00
35045;BME280;21231;48.394;34.964;2023-02-28T04:31:17;101047.44;;;-0.71;100.00
35045;BME280;21231;48.394;34.964;2023-02-28T04:34:03;101049.25;;;-0.70;100.00
35045;BME280;21231;48.394;34.964;2023-02-28T04:36:50;101045.81;;;-0.71;100.00
35045;BME280;21231;48.394;34.964;2023-02-28T04:39:54;101047.44;;;-0.71;100.00
35045;BME280;21231;48.394;34.964;2023-02-28T04:42:40;101054.66;;;-0.74;100.00
35045;BME280;21231;48.394;34.964;2023-02-28T04:45:26;101051.06;;;-0.76;100.00
35045;BME280;21231;48.394;34.964;2023-02-28T04:48:15;101046.53;;;-0.72;100.00
35045;BME280;21231;48.394;34.964;2023-02-28T04:51:08;101047.81;;;-0.75;100.00
35045;BME280;21231;48.394;34.964;2023-02-28T04:53:54;101047.81;;;-0.75;100.00
35045;BME280;21231;48.394;34.964;2023-02-28T04:56:40;101047.81;;;-0.75;100.00
35045;BME280;21231;48.394;34.964;2023-02-28T04:59:26;101059.91;;;-0.73;100.00
35045;BME280;21231;48.394;34.964;2023-02-28T05:02:13;101062.09;;;-0.76;100.00
35045;BME280;21231;48.394;34.964;2023-02-28T05:04:58;101060.47;;;-0.75;100.00
35045;BME280;21231;48.394;34.964;2023-02-28T05:07:44;101067.69;;;-0.78;100.00
35045;BME280;21231;48.394;34.964;2023-02-28T05:10:30;101072.22;;;-0.76;100.00
35045;BME280;21231;48.394;34.964;2023-02-28T05:13:17;101075.47;;;-0.77;100.00
35045;BME280;21231;48.394;34.964;2023-02-28T05:16:03;101074.75;;;-0.76;100.00
35045;BME280;21231;48.394;34.964;2023-02-28T05:18:49;101065.34;;;-0.77;100.00
35045;BME280;21231;48.394;34.964;2023-02-28T05:21:38;101058.31;;;-0.79;100.00
35045;BME280;21231;48.394;34.964;2023-02-28T05:24:25;101059.41;;;-0.77;100.00
35045;BME280;21231;48.394;34.964;2023-02-28T05:27:11;101049.28;;;-0.77;100.00
35045;BME280;21231;48.394;34.964;2023-02-28T05:29:57;101053.25;;;-0.72;100.00
35045;BME280;21231;48.394;34.964;2023-02-28T05:32:50;101062.44;;;-0.65;100.00
35045;BME280;21231;48.394;34.964;2023-02-28T05:35:38;101065.34;;;-0.62;100.00
35045;BME280;21231;48.394;34.964;2023-02-28T05:38:24;101072.53;;;-0.58;100.00
35045;BME280;21231;48.394;34.964;2023-02-28T05:41:11;101074.91;;;-0.60;100.00
35045;BME280;21231;48.394;34.964;2023-02-28T05:43:57;101081.22;;;-0.63;100.00
35045;BME280;21231;48.394;34.964;2023-02-28T05:46:43;101079.63;;;-0.70;100.00
35045;BME280;21231;48.394;34.964;2023-02-28T05:49:29;101079.06;;;-0.67;100.00
35045;BME280;21231;48.394;34.964;2023-02-28T05:52:15;101087.94;;;-0.64;100.00
35045;BME280;21231;48.394;34.964;2023-02-28T05:55:01;101083.56;;;-0.65;100.00
35045;BME280;21231;48.394;34.964;2023-02-28T05:57:47;101077.63;;;-0.65;100.00
35045;BME280;21231;48.394;34.964;2023-02-28T06:00:33;101085.03;;;-0.60;100.00
35045;BME280;21231;48.394;34.964;2023-02-28T06:03:19;101085.75;;;-0.61;100.00
35045;BME280;21231;48.394;34.964;2023-02-28T06:06:05;101087.03;;;-0.64;100.00
35045;BME280;21231;48.394;34.964;2023-02-28T06:08:51;101092.44;;;-0.61;100.00
35045;BME280;21231;48.394;34.964;2023-02-28T06:11:37;101096.97;;;-0.66;100.00
35045;BME280;21231;48.394;34.964;2023-02-28T06:14:26;101091.41;;;-0.71;100.00
35045;BME280;21231;48.394;34.964;2023-02-28T06:17:12;101088.31;;;-0.68;100.00
35045;BME280;21231;48.394;34.964;2023-02-28T06:19:58;101087.41;;;-0.76;100.00
35045;BME280;21231;48.394;34.964;2023-02-28T06:22:44;101084.34;;;-0.73;100.00
35045;BME280;21231;48.394;34.964;2023-02-28T06:25:30;101082.31;;;-0.61;100.00
35045;BME280;21231;48.394;34.964;2023-02-28T06:28:16;101094.00;;;-0.40;100.00
35045;BME280;21231;48.394;34.964;2023-02-28T06:31:09;101089.69;;;-0.48;100.00
35045;BME280;21231;48.394;34.964;2023-02-28T06:33:56;101089.16;;;-0.53;100.00
35045;BME280;21231;48.394;34.964;2023-02-28T06:36:43;101100.59;;;-0.64;100.00
35045;BME280;21231;48.394;34.964;2023-02-28T06:39:30;101094.97;;;-0.61;100.00
35045;BME280;21231;48.394;34.964;2023-02-28T06:42:16;101092.09;;;-0.64;100.00
35045;BME280;21231;48.394;34.964;2023-02-28T06:45:02;101089.53;;;-0.57;100.00
35045;BME280;21231;48.394;34.964;2023-02-28T06:47:55;101094.75;;;-0.48;100.00
35045;BME280;21231;48.394;34.964;2023-02-28T06:50:41;101092.94;;;-0.49;100.00
35045;BME280;21231;48.394;34.964;2023-02-28T06:53:27;101086.09;;;-0.50;100.00
35045;BME280;21231;48.394;34.964;2023-02-28T06:56:14;101092.41;;;-0.54;100.00
35045;BME280;21231;48.394;34.964;2023-02-28T06:59:01;101094.94;;;-0.54;100.00
35045;BME280;21231;48.394;34.964;2023-02-28T07:01:47;101108.31;;;-0.48;100.00
35045;BME280;21231;48.394;34.964;2023-02-28T07:04:33;101099.63;;;-0.43;100.00
35045;BME280;21231;48.394;34.964;2023-02-28T07:07:19;101108.09;;;-0.35;100.00
35045;BME280;21231;48.394;34.964;2023-02-28T07:10:05;101101.03;;;-0.30;100.00
35045;BME280;21231;48.394;34.964;2023-02-28T07:12:51;101100.84;;;-0.32;100.00
35045;BME280;21231;48.394;34.964;2023-02-28T07:15:37;101097.44;;;-0.39;100.00
35045;BME280;21231;48.394;34.964;2023-02-28T07:18:28;101092.56;;;-0.38;100.00
35045;BME280;21231;48.394;34.964;2023-02-28T07:21:14;101084.41;;;-0.35;100.00
35045;BME280;21231;48.394;34.964;2023-02-28T07:24:01;101092.38;;;-0.39;100.00
35045;BME280;21231;48.394;34.964;2023-02-28T07:26:47;101093.13;;;-0.48;100.00
35045;BME280;21231;48.394;34.964;2023-02-28T07:29:32;101085.91;;;-0.45;100.00
35045;BME280;21231;48.394;34.964;2023-02-28T07:32:19;101087.50;;;-0.38;100.00
35045;BME280;21231;48.394;34.964;2023-02-28T07:35:05;101083.66;;;-0.34;100.00
35045;BME280;21231;48.394;34.964;2023-02-28T07:37:51;101074.22;;;-0.28;100.00
35045;BME280;21231;48.394;34.964;2023-02-28T07:40:37;101080.03;;;-0.29;100.00
35045;BME280;21231;48.394;34.964;2023-02-28T07:43:23;101074.22;;;-0.28;100.00
35045;BME280;21231;48.394;34.964;2023-02-28T07:46:12;101066.69;;;-0.43;100.00
35045;BME280;21231;48.394;34.964;2023-02-28T07:49:01;101068.50;;;-0.42;100.00
35045;BME280;21231;48.394;34.964;2023-02-28T07:51:48;101068.09;;;-0.37;100.00
35045;BME280;21231;48.394;34.964;2023-02-28T07:54:34;101056.88;;;-0.32;100.00
35045;BME280;21231;48.394;34.964;2023-02-28T07:57:20;101064.44;;;-0.25;100.00
35045;BME280;21231;48.394;34.964;2023-02-28T08:00:08;101063.94;;;-0.30;100.00
35045;BME280;21231;48.394;34.964;2023-02-28T08:02:58;101064.06;;;-0.21;100.00
35045;BME280;21231;48.394;34.964;2023-02-28T08:05:45;101078.91;;;-0.24;100.00
35045;BME280;21231;48.394;34.964;2023-02-28T08:08:31;101086.13;;;-0.20;100.00
35045;BME280;21231;48.394;34.964;2023-02-28T08:11:18;101079.41;;;-0.12;100.00
35045;BME280;21231;48.394;34.964;2023-02-28T08:14:04;101066.50;;;-0.06;100.00
35045;BME280;21231;48.394;34.964;2023-02-28T08:16:51;101078.38;;;0.09;100.00
35045;BME280;21231;48.394;34.964;2023-02-28T08:19:36;101078.59;;;0.34;100.00
35045;BME280;21231;48.394;34.964;2023-02-28T08:22:22;101077.81;;;0.12;100.00
35045;BME280;21231;48.394;34.964;2023-02-28T08:25:08;101084.03;;;-0.00;100.00
35045;BME280;21231;48.394;34.964;2023-02-28T08:27:54;101075.38;;;-0.03;100.00
35045;BME280;21231;48.394;34.964;2023-02-28T08:30:40;101083.78;;;0.20;100.00
35045;BME280;21231;48.394;34.964;2023-02-28T08:33:27;101074.81;;;0.00;100.00
35045;BME280;21231;48.394;34.964;2023-02-28T08:36:14;101081.66;;;0.08;100.00
35045;BME280;21231;48.394;34.964;2023-02-28T08:39:01;101071.56;;;0.01;100.00
35045;BME280;21231;48.394;34.964;2023-02-28T08:41:47;101076.41;;;0.07;100.00
35045;BME280;21231;48.394;34.964;2023-02-28T08:44:43;101083.72;;;0.27;100.00
35045;BME280;21231;48.394;34.964;2023-02-28T08:47:30;101092.06;;;0.26;100.00
35045;BME280;21231;48.394;34.964;2023-02-28T08:50:16;101090.94;;;0.31;100.00
35045;BME280;21231;48.394;34.964;2023-02-28T08:53:02;101080.19;;;0.41;100.00
35045;BME280;21231;48.394;34.964;2023-02-28T08:56:05;101067.22;;;0.31;100.00
35045;BME280;21231;48.394;34.964;2023-02-28T08:58:51;101073.00;;;0.30;100.00
35045;BME280;21231;48.394;34.964;2023-02-28T09:01:41;101078.63;;;0.27;100.00
35045;BME280;21231;48.394;34.964;2023-02-28T09:04:27;101073.47;;;0.42;100.00
35045;BME280;21231;48.394;34.964;2023-02-28T09:07:16;101078.22;;;0.39;100.00
35045;BME280;21231;48.394;34.964;2023-02-28T09:10:10;101080.00;;;0.63;100.00
35045;BME280;21231;48.394;34.964;2023-02-28T09:12:39;101082.09;;;0.51;100.00
35045;BME280;21231;48.394;34.964;2023-02-28T09:15:07;101085.22;;;0.48;100.00
35045;BME280;21231;48.394;34.964;2023-02-28T09:17:38;101084.75;;;0.60;100.00
35045;BME280;21231;48.394;34.964;2023-02-28T09:20:07;101088.19;;;0.60;100.00
35045;BME280;21231;48.394;34.964;2023-02-28T09:22:39;101078.03;;;0.60;100.00
35045;BME280;21231;48.394;34.964;2023-02-28T09:25:08;101084.56;;;0.58;100.00
35045;BME280;21231;48.394;34.964;2023-02-28T09:27:36;101091.16;;;0.49;100.00
35045;BME280;21231;48.394;34.964;2023-02-28T09:30:05;101082.94;;;0.35;100.00
35045;BME280;21231;48.394;34.964;2023-02-28T09:32:33;101084.28;;;0.25;100.00
35045;BME280;21231;48.394;34.964;2023-02-28T09:35:02;101086.94;;;0.33;100.00
35045;BME280;21231;48.394;34.964;2023-02-28T09:37:30;101095.22;;;0.40;100.00
35045;BME280;21231;48.394;34.964;2023-02-28T09:39:59;101086.47;;;0.45;100.00
35045;BME280;21231;48.394;34.964;2023-02-28T09:42:33;101099.50;;;0.48;100.00
35045;BME280;21231;48.394;34.964;2023-02-28T09:45:07;101088.69;;;0.42;100.00
35045;BME280;21231;48.394;34.964;2023-02-28T09:47:45;101079.22;;;0.48;100.00
35045;BME280;21231;48.394;34.964;2023-02-28T09:52:45;101083.06;;;0.44;100.00
35045;BME280;21231;48.394;34.964;2023-02-28T09:58:18;101086.94;;;0.33;100.00
35045;BME280;21231;48.394;34.964;2023-02-28T10:00:56;101083.16;;;0.30;100.00
35045;BME280;21231;48.394;34.964;2023-02-28T10:03:39;101075.25;;;0.19;100.00
35045;BME280;21231;48.394;34.964;2023-02-28T10:08:45;101078.66;;;-0.04;100.00
35045;BME280;21231;48.394;34.964;2023-02-28T10:11:16;101085.69;;;-0.01;100.00
35045;BME280;21231;48.394;34.964;2023-02-28T10:13:53;101079.13;;;0.08;100.00
35045;BME280;21231;48.394;34.964;2023-02-28T10:16:37;101089.75;;;0.13;100.00
35045;BME280;21231;48.394;34.964;2023-02-28T10:19:50;101080.94;;;0.02;100.00
35045;BME280;21231;48.394;34.964;2023-02-28T10:22:29;101082.34;;;0.15;100.00
35045;BME280;21231;48.394;34.964;2023-02-28T10:25:19;101075.75;;;0.24;100.00
35045;BME280;21231;48.394;34.964;2023-02-28T10:27:50;101072.25;;;0.07;100.00
35045;BME280;21231;48.394;34.964;2023-02-28T10:30:21;101063.25;;;0.26;100.00
35045;BME280;21231;48.394;34.964;2023-02-28T10:32:51;101063.88;;;0.39;100.00
35045;BME280;21231;48.394;34.964;2023-02-28T10:35:26;101065.56;;;0.31;100.00
35045;BME280;21231;48.394;34.964;2023-02-28T10:37:57;101057.78;;;0.30;100.00
35045;BME280;21231;48.394;34.964;2023-02-28T10:40:33;101052.31;;;0.34;100.00
35045;BME280;21231;48.394;34.964;2023-02-28T10:43:19;101049.97;;;0.35;100.00
35045;BME280;21231;48.394;34.964;2023-02-28T10:48:39;101059.34;;;0.13;100.00
35045;BME280;21231;48.394;34.964;2023-02-28T10:51:14;101053.66;;;0.23;100.00
35045;BME280;21231;48.394;34.964;2023-02-28T10:53:54;101053.97;;;0.33;100.00
35045;BME280;21231;48.394;34.964;2023-02-28T10:56:31;101043.22;;;0.20;100.00
35045;BME280;21231;48.394;34.964;2023-02-28T11:01:54;101034.19;;;0.38;100.00
35045;BME280;21231;48.394;34.964;2023-02-28T11:06:59;101018.13;;;0.30;100.00
35045;BME280;21231;48.394;34.964;2023-02-28T11:09:35;101029.16;;;0.54;100.00
35045;BME280;21231;48.394;34.964;2023-02-28T11:12:39;101027.91;;;0.74;100.00
35045;BME280;21231;48.394;34.964;2023-02-28T11:15:35;101033.16;;;0.75;100.00
35045;BME280;21231;48.394;34.964;2023-02-28T11:20:51;101024.06;;;0.78;100.00
35045;BME280;21231;48.394;34.964;2023-02-28T11:23:25;101031.50;;;0.76;100.00
35045;BME280;21231;48.394;34.964;2023-02-28T11:25:58;101032.03;;;0.57;100.00
35045;BME280;21231;48.394;34.964;2023-02-28T11:28:39;101031.38;;;0.51;100.00
35045;BME280;21231;48.394;34.964;2023-02-28T11:33:48;101031.88;;;0.56;100.00
35045;BME280;21231;48.394;34.964;2023-02-28T11:36:30;101035.34;;;0.72;100.00
35045;BME280;21231;48.394;34.964;2023-02-28T11:39:07;101033.56;;;0.48;100.00
35045;BME280;21231;48.394;34.964;2023-02-28T11:41:46;101034.34;;;0.63;100.00
35045;BME280;21231;48.394;34.964;2023-02-28T11:47:46;101035.56;;;0.67;100.00
35045;BME280;21231;48.394;34.964;2023-02-28T11:53:22;101029.78;;;0.68;100.00
35045;BME280;21231;48.394;34.964;2023-02-28T11:56:06;101029.09;;;0.61;100.00
35045;BME280;21231;48.394;34.964;2023-02-28T12:07:08;101027.25;;;0.21;100.00
35045;BME280;21231;48.394;34.964;2023-02-28T12:10:20;101020.53;;;0.21;100.00
35045;BME280;21231;48.394;34.964;2023-02-28T12:13:21;101017.84;;;0.20;100.00
35045;BME280;21231;48.394;34.964;2023-02-28T12:16:14;101020.88;;;0.25;100.00
35045;BME280;21231;48.394;34.964;2023-02-28T12:27:44;101007.91;;;1.00;100.00
35045;BME280;21231;48.394;34.964;2023-02-28T12:30:32;101010.88;;;0.73;100.00
35045;BME280;21231;48.394;34.964;2023-02-28T12:33:08;101004.66;;;0.62;100.00
35045;BME280;21231;48.394;34.964;2023-02-28T12:35:54;101002.06;;;0.46;100.00
35045;BME280;21231;48.394;34.964;2023-02-28T12:38:45;101009.72;;;0.39;100.00
35045;BME280;21231;48.394;34.964;2023-02-28T12:41:48;101007.69;;;0.43;100.00
35045;BME280;21231;48.394;34.964;2023-02-28T12:47:18;101010.31;;;0.75;100.00
35045;BME280;21231;48.394;34.964;2023-02-28T12:49:54;101003.06;;;1.11;100.00
35045;BME280;21231;48.394;34.964;2023-02-28T12:52:57;100999.75;;;1.28;100.00
35045;BME280;21231;48.394;34.964;2023-02-28T12:55:43;101000.34;;;1.25;100.00
35045;BME280;21231;48.394;34.964;2023-02-28T12:58:22;100998.88;;;1.11;100.00
35045;BME280;21231;48.394;34.964;2023-02-28T13:04:04;101001.97;;;0.77;100.00
35045;BME280;21231;48.394;34.964;2023-02-28T13:09:28;101008.25;;;0.80;100.00
35045;BME280;21231;48.394;34.964;2023-02-28T13:11:58;101008.59;;;0.83;100.00
35045;BME280;21231;48.394;34.964;2023-02-28T13:14:29;101000.16;;;0.75;100.00
35045;BME280;21231;48.394;34.964;2023-02-28T13:27:50;100986.38;;;0.57;100.00
35045;BME280;21231;48.394;34.964;2023-02-28T13:31:04;100977.91;;;0.33;100.00
35045;BME280;21231;48.394;34.964;2023-02-28T13:33:36;100979.91;;;0.29;100.00
35045;BME280;21231;48.394;34.964;2023-02-28T13:36:34;100978.38;;;0.38;100.00
35045;BME280;21231;48.394;34.964;2023-02-28T13:39:44;100971.50;;;0.60;100.00
35045;BME280;21231;48.394;34.964;2023-02-28T13:41:51;100972.06;;;0.58;100.00
35045;BME280;21231;48.394;34.964;2023-02-28T13:44:22;100966.13;;;0.50;100.00
35045;BME280;21231;48.394;34.964;2023-02-28T13:49:27;100960.63;;;0.38;100.00
35045;BME280;21231;48.394;34.964;2023-02-28T13:52:12;100960.25;;;0.58;100.00
35045;BME280;21231;48.394;34.964;2023-02-28T13:54:56;100962.91;;;0.83;100.00
35045;BME280;21231;48.394;34.964;2023-02-28T14:05:45;100959.03;;;0.55;100.00
35045;BME280;21231;48.394;34.964;2023-02-28T14:08:17;100957.59;;;0.57;100.00
35045;BME280;21231;48.394;34.964;2023-02-28T14:11:02;100964.50;;;0.51;100.00
35045;BME280;21231;48.394;34.964;2023-02-28T14:13:46;100964.97;;;0.39;100.00
35045;BME280;21231;48.394;34.964;2023-02-28T14:16:24;100964.81;;;0.38;100.00
35045;BME280;21231;48.394;34.964;2023-02-28T14:19:01;100969.44;;;0.26;100.00
35045;BME280;21231;48.394;34.964;2023-02-28T14:21:36;100971.75;;;0.08;100.00
35045;BME280;21231;48.394;34.964;2023-02-28T14:27:15;100970.31;;;-0.21;100.00
35045;BME280;21231;48.394;34.964;2023-02-28T14:37:47;100978.88;;;-0.65;100.00
35045;BME280;21231;48.394;34.964;2023-02-28T14:40:40;100981.97;;;-0.68;100.00
35045;BME280;21231;48.394;34.964;2023-02-28T14:43:21;100974.19;;;-0.70;100.00
35045;BME280;21231;48.394;34.964;2023-02-28T14:45:59;100968.78;;;-0.73;100.00
35045;BME280;21231;48.394;34.964;2023-02-28T14:48:28;100971.31;;;-0.73;100.00
35045;BME280;21231;48.394;34.964;2023-02-28T14:50:58;100966.50;;;-0.86;100.00
35045;BME280;21231;48.394;34.964;2023-02-28T14:53:30;100973.75;;;-0.96;100.00
35045;BME280;21231;48.394;34.964;2023-02-28T14:56:03;100976.47;;;-1.02;100.00
35045;BME280;21231;48.394;34.964;2023-02-28T14:58:33;100980.47;;;-1.04;100.00
35045;BME280;21231;48.394;34.964;2023-02-28T15:01:03;100968.75;;;-1.11;100.00
35045;BME280;21231;48.394;34.964;2023-02-28T15:03:37;100976.34;;;-1.11;100.00
35045;BME280;21231;48.394;34.964;2023-02-28T15:06:13;100979.78;;;-1.17;100.00
35045;BME280;21231;48.394;34.964;2023-02-28T15:08:42;100981.75;;;-1.22;100.00
35045;BME280;21231;48.394;34.964;2023-02-28T15:11:18;100971.09;;;-1.19;100.00
35045;BME280;21231;48.394;34.964;2023-02-28T15:13:54;100965.50;;;-1.17;100.00
35045;BME280;21231;48.394;34.964;2023-02-28T15:19:22;100974.53;;;-1.19;100.00
35045;BME280;21231;48.394;34.964;2023-02-28T15:22:05;100977.97;;;-1.18;100.00
35045;BME280;21231;48.394;34.964;2023-02-28T15:24:40;100976.72;;;-1.22;100.00
35045;BME280;21231;48.394;34.964;2023-02-28T15:27:20;100973.81;;;-1.25;100.00
35045;BME280;21231;48.394;34.964;2023-02-28T15:29:59;100974.00;;;-1.24;100.00
35045;BME280;21231;48.394;34.964;2023-02-28T15:32:31;100971.84;;;-1.28;100.00
35045;BME280;21231;48.394;34.964;2023-02-28T15:35:19;100974.22;;;-1.29;100.00
35045;BME280;21231;48.394;34.964;2023-02-28T15:37:53;100973.84;;;-1.32;100.00
35045;BME280;21231;48.394;34.964;2023-02-28T15:40:36;100974.72;;;-1.32;100.00
35045;BME280;21231;48.394;34.964;2023-02-28T15:45:52;100977.13;;;-1.34;100.00
35045;BME280;21231;48.394;34.964;2023-02-28T15:50:52;100972.41;;;-1.38;100.00
35045;BME280;21231;48.394;34.964;2023-02-28T15:53:25;100978.72;;;-1.34;100.00
35045;BME280;21231;48.394;34.964;2023-02-28T15:56:02;100978.91;;;-1.32;100.00
35045;BME280;21231;48.394;34.964;2023-02-28T15:58:33;100992.25;;;-1.26;100.00
35045;BME280;21231;48.394;34.964;2023-02-28T16:04:04;100986.88;;;-1.37;100.00
35045;BME280;21231;48.394;34.964;2023-02-28T16:06:35;100990.47;;;-1.35;100.00
35045;BME280;21231;48.394;34.964;2023-02-28T16:09:06;100989.56;;;-1.35;100.00